Time,TemperatureF,DewpointF,PressureIn,WindDirection,WindDirectionDegrees,WindSpeedMPH,WindSpeedGustMPH,Humidity,HourlyPrecipIn,Conditions,Clouds,dailyrainin,SoftwareType,DateUTC
2013-08-27 00:00:00,61.5,57.9,30.03,West,274,3.0,6.0,88,0.00,CLR,CLR,0.00,WeatherDisplay:10.37,2013-08-26 23:00:00,
2013-08-27 00:10:00,61.3,57.4,30.04,West,279,3.0,6.0,87,0.00,CLR,CLR,0.00,WeatherDisplay:10.37,2013-08-26 23:10:00,
2013-08-27 00:20:00,61.3,57.4,30.03,West,272,3.0,7.0,87,0.00,CLR,CLR,0.00,WeatherDisplay:10.37,2013-08-26 23:20:00,
2013-08-27 00:30:00,61.3,57.1,30.04,West,273,3.0,7.0,86,0.00,CLR,CLR,0.00,WeatherDisplay:10.37,2013-08-26 23:30:00,
2013-08-27 00:40:00,61.5,57.3,30.03,West,266,2.0,8.0,86,0.00,CLR,CLR,0.00,WeatherDisplay:10.37,2013-08-26 23:40:00,
2013-08-27 00:50:00,61.3,57.1,30.03,West,275,5.0,8.0,86,0.00,CLR,CLR,0.00,WeatherDisplay:10.37,2013-08-26 23:50:00,
2013-08-27 01:00:00,61.3,56.8,30.03,West,277,6.0,10.0,85,0.00,CLR,CLR,0.00,WeatherDisplay:10.37,2013-08-27 00:00:00,
2013-08-27 01:10:00,61.0,56.1,30.03,West,273,3.0,9.0,84,0.00,CLR,CLR,0.00,WeatherDisplay:10.37,2013-08-27 00:10:00,
2013-08-27 01:20:00,60.8,56.3,30.03,West,280,6.0,9.0,85,0.00,CLR,CLR,0.00,WeatherDisplay:10.37,2013-08-27 00:20:00,
2013-08-27 01:30:00,60.9,56.4,30.02,WSW,258,5.0,8.0,85,0.00,CLR,CLR,0.00,WeatherDisplay:10.37,2013-08-27 00:30:00,
2013-08-27 01:40:00,60.8,56.6,30.03,West,263,6.0,8.0,86,0.00,CLR,CLR,0.00,WeatherDisplay:10.37,2013-08-27 00:40:00,
2013-08-27 01:50:00,60.8,56.9,30.03,WNW,295,10.0,15.0,87,0.00,CLR,CLR,0.00,WeatherDisplay:10.37,2013-08-27 00:50:00,
2013-08-27 02:00:00,60.8,56.9,30.03,WNW,287,13.0,20.0,87,0.00,CLR,CLR,0.00,WeatherDisplay:10.37,2013-08-27 01:00:00,
2013-08-27 02:10:00,60.8,56.9,30.03,NW,305,9.0,17.0,87,0.00,CLR,CLR,0.00,WeatherDisplay:10.37,2013-08-27 01:10:00,
2013-08-27 02:20:00,60.6,57.0,30.02,West,280,7.0,13.0,88,0.00,CLR,CLR,0.00,WeatherDisplay:10.37,2013-08-27 01:20:00,
2013-08-27 02:30:00,60.6,57.0,30.02,West,277,7.0,10.0,88,0.00,CLR,CLR,0.00,WeatherDisplay:10.37,2013-08-27 01:30:00,
2013-08-27 02:40:00,60.8,56.9,30.02,WNW,283,8.0,13.0,87,0.00,CLR,CLR,0.00,WeatherDisplay:10.37,2013-08-27 01:40:00,
2013-08-27 02:50:00,60.8,56.6,30.02,West,274,3.0,12.0,86,0.00,CLR,CLR,0.00,WeatherDisplay:10.37,2013-08-27 01:50:00,
2013-08-27 03:00:00,60.6,57.0,30.02,West,270,6.0,7.0,88,0.00,CLR,CLR,0.00,WeatherDisplay:10.37,2013-08-27 02:00:00,
2013-08-27 03:10:00,60.8,56.9,30.02,WNW,284,6.0,12.0,87,0.00,CLR,CLR,0.00,WeatherDisplay:10.37,2013-08-27 02:10:00,
2013-08-27 03:20:00,60.8,56.9,30.02,West,261,8.0,13.0,87,0.00,CLR,CLR,0.00,WeatherDisplay:10.37,2013-08-27 02:20:00,
2013-08-27 03:30:00,60.6,57.0,30.02,WNW,294,5.0,11.0,88,0.00,CLR,CLR,0.00,WeatherDisplay:10.37,2013-08-27 02:30:00,
2013-08-27 03:40:00,60.6,57.4,30.02,West,278,6.0,11.0,89,0.00,CLR,CLR,0.00,WeatherDisplay:10.37,2013-08-27 02:40:00,
2013-08-27 03:50:00,60.6,57.3,30.02,West,277,5.0,8.0,89,0.00,CLR,CLR,0.00,WeatherDisplay:10.37,2013-08-27 02:50:00,
2013-08-27 04:00:00,60.4,57.2,30.02,WNW,282,5.0,8.0,89,0.00,CLR,CLR,0.00,WeatherDisplay:10.37,2013-08-27 03:00:00,
2013-08-27 04:10:00,60.4,57.2,30.02,West,273,7.0,9.0,89,0.00,CLR,CLR,0.00,WeatherDisplay:10.37,2013-08-27 03:10:00,
2013-08-27 04:20:00,60.3,57.0,30.02,WNW,290,6.0,10.0,89,0.00,CLR,CLR,0.00,WeatherDisplay:10.37,2013-08-27 03:20:00,
2013-08-27 04:30:00,60.3,57.0,30.01,WNW,282,7.0,11.0,89,0.00,CLR,CLR,0.00,WeatherDisplay:10.37,2013-08-27 03:30:00,
2013-08-27 04:40:00,60.4,57.1,30.02,WNW,288,7.0,13.0,89,0.00,CLR,CLR,0.00,WeatherDisplay:10.37,2013-08-27 03:40:00,
2013-08-27 04:50:00,60.3,57.0,30.01,WNW,284,7.0,13.0,89,0.00,CLR,CLR,0.00,WeatherDisplay:10.37,2013-08-27 03:50:00,
2013-08-27 05:00:00,60.3,57.3,30.02,West,273,6.0,10.0,90,0.00,CLR,CLR,0.00,WeatherDisplay:10.37,2013-08-27 04:00:00,
2013-08-27 05:10:00,60.5,57.5,30.02,West,272,9.0,13.0,90,0.00,CLR,CLR,0.00,WeatherDisplay:10.37,2013-08-27 04:10:00,
2013-08-27 05:20:00,60.6,57.7,30.02,WNW,291,9.0,13.0,90,0.00,CLR,CLR,0.00,WeatherDisplay:10.37,2013-08-27 04:20:00,
2013-08-27 05:30:00,60.6,57.7,30.03,WNW,292,8.0,13.0,90,0.00,CLR,CLR,0.00,WeatherDisplay:10.37,2013-08-27 04:30:00,
2013-08-27 05:40:00,60.6,57.7,30.03,WNW,282,8.0,12.0,90,0.00,CLR,CLR,0.00,WeatherDisplay:10.37,2013-08-27 04:40:00,
2013-08-27 05:50:00,60.6,57.4,30.03,WNW,297,7.0,13.0,89,0.00,CLR,CLR,0.00,WeatherDisplay:10.37,2013-08-27 04:50:00,
2013-08-27 06:00:00,60.8,57.2,30.03,WNW,283,7.0,13.0,88,0.00,CLR,CLR,0.00,WeatherDisplay:10.37,2013-08-27 05:00:00,
2013-08-27 06:10:00,62.0,58.4,30.03,West,264,9.0,13.0,88,0.00,CLR,CLR,0.00,WeatherDisplay:10.37,2013-08-27 05:10:00,
2013-08-27 06:20:00,63.1,58.2,30.03,WNW,285,10.0,15.0,84,0.00,CLR,CLR,0.00,WeatherDisplay:10.37,2013-08-27 05:20:00,
2013-08-27 06:30:00,63.3,58.1,30.04,West,260,8.0,15.0,83,0.00,CLR,CLR,0.00,WeatherDisplay:10.37,2013-08-27 05:30:00,
2013-08-27 06:40:00,63.0,57.7,30.04,West,279,8.0,13.0,83,0.00,CLR,CLR,0.00,WeatherDisplay:10.37,2013-08-27 05:40:00,
2013-08-27 06:50:00,62.1,57.2,30.03,West,263,6.0,10.0,84,0.00,CLR,CLR,0.00,WeatherDisplay:10.37,2013-08-27 05:50:00,
2013-08-27 07:00:00,61.7,57.2,30.03,West,269,7.0,11.0,85,0.00,CLR,CLR,0.00,WeatherDisplay:10.37,2013-08-27 06:00:00,
2013-08-27 07:10:00,62.8,57.9,30.03,WSW,257,6.0,12.0,84,0.00,CLR,CLR,0.00,WeatherDisplay:10.37,2013-08-27 06:10:00,
2013-08-27 07:20:00,62.4,57.5,30.03,West,279,8.0,12.0,84,0.00,CLR,CLR,0.00,WeatherDisplay:10.37,2013-08-27 06:20:00,
2013-08-27 07:30:00,62.2,57.3,30.03,WNW,294,10.0,13.0,84,0.00,CLR,CLR,0.00,WeatherDisplay:10.37,2013-08-27 06:30:00,
2013-08-27 07:40:00,62.4,57.5,30.03,West,281,10.0,14.0,84,0.00,CLR,CLR,0.00,WeatherDisplay:10.37,2013-08-27 06:40:00,
2013-08-27 07:50:00,62.4,57.5,30.03,West,268,9.0,15.0,84,0.00,CLR,CLR,0.00,WeatherDisplay:10.37,2013-08-27 06:50:00,
2013-08-27 08:00:00,63.0,57.7,30.03,West,275,8.0,15.0,83,0.00,CLR,CLR,0.00,WeatherDisplay:10.37,2013-08-27 07:00:00,
2013-08-27 08:10:00,62.8,57.2,30.04,West,270,10.0,16.0,82,0.00,CLR,CLR,0.00,WeatherDisplay:10.37,2013-08-27 07:10:00,
2013-08-27 08:20:00,63.1,57.6,30.04,West,274,9.0,15.0,82,0.00,CLR,CLR,0.00,WeatherDisplay:10.37,2013-08-27 07:20:00,
2013-08-27 08:30:00,63.3,57.7,30.04,WSW,247,6.0,13.0,82,0.00,CLR,CLR,0.00,WeatherDisplay:10.37,2013-08-27 07:30:00,
2013-08-27 08:40:00,62.8,57.2,30.04,West,262,5.0,11.0,82,0.00,CLR,CLR,0.00,WeatherDisplay:10.37,2013-08-27 07:40:00,
2013-08-27 08:50:00,63.3,58.1,30.04,WSW,239,6.0,12.0,83,0.00,CLR,CLR,0.00,WeatherDisplay:10.37,2013-08-27 07:50:00,
2013-08-27 09:00:00,63.2,57.9,30.04,WNW,286,6.0,12.0,83,0.00,CLR,CLR,0.00,WeatherDisplay:10.37,2013-08-27 08:00:00,
2013-08-27 09:10:00,64.2,58.6,30.05,West,274,7.0,12.0,82,0.00,CLR,CLR,0.00,WeatherDisplay:10.37,2013-08-27 08:10:00,
2013-08-27 09:20:00,64.8,59.1,30.05,West,271,7.0,12.0,82,0.00,CLR,CLR,0.00,WeatherDisplay:10.37,2013-08-27 08:20:00,
2013-08-27 09:30:00,64.8,58.9,30.05,WNW,290,7.0,13.0,81,0.00,CLR,CLR,0.00,WeatherDisplay:10.37,2013-08-27 08:30:00,
2013-08-27 09:40:00,64.4,58.4,30.05,West,268,8.0,13.0,81,0.00,CLR,CLR,0.00,WeatherDisplay:10.37,2013-08-27 08:40:00,
2013-08-27 09:50:00,65.5,59.1,30.05,West,265,8.0,13.0,80,0.00,CLR,CLR,0.00,WeatherDisplay:10.37,2013-08-27 08:50:00,
2013-08-27 10:00:00,66.0,59.3,30.05,West,278,6.0,13.0,79,0.00,CLR,CLR,0.00,WeatherDisplay:10.37,2013-08-27 09:00:00,
2013-08-27 10:10:00,65.8,58.8,30.05,West,267,5.0,13.0,78,0.00,CLR,CLR,0.00,WeatherDisplay:10.37,2013-08-27 09:10:00,
2013-08-27 10:20:00,65.0,58.7,30.05,West,268,9.0,12.0,80,0.00,CLR,CLR,0.00,WeatherDisplay:10.37,2013-08-27 09:20:00,
2013-08-27 10:30:00,65.6,59.3,30.06,West,277,8.0,12.0,80,0.00,CLR,CLR,0.00,WeatherDisplay:10.37,2013-08-27 09:30:00,
2013-08-27 10:40:00,64.7,58.4,30.07,West,265,8.0,12.0,80,0.00,CLR,CLR,0.00,WeatherDisplay:10.37,2013-08-27 09:40:00,
2013-08-27 10:50:00,63.7,58.1,30.06,WSW,240,7.0,10.0,82,0.00,CLR,CLR,0.00,WeatherDisplay:10.37,2013-08-27 09:50:00,
2013-08-27 11:00:00,63.8,58.2,30.06,West,274,9.0,13.0,82,0.00,CLR,CLR,0.00,WeatherDisplay:10.37,2013-08-27 10:00:00,
2013-08-27 11:10:00,63.7,58.4,30.06,WNW,282,9.0,13.0,83,0.00,CLR,CLR,0.00,WeatherDisplay:10.37,2013-08-27 10:10:00,
2013-08-27 11:20:00,63.5,58.2,30.06,West,277,9.0,14.0,83,0.00,CLR,CLR,0.00,WeatherDisplay:10.37,2013-08-27 10:20:00,
2013-08-27 11:30:00,63.9,58.9,30.06,WNW,286,9.0,20.0,84,0.00,CLR,CLR,0.00,WeatherDisplay:10.37,2013-08-27 10:30:00,
2013-08-27 11:40:00,64.1,58.9,30.06,West,259,10.0,15.0,83,0.00,CLR,CLR,0.00,WeatherDisplay:10.37,2013-08-27 10:40:00,
2013-08-27 11:50:00,64.8,59.1,30.06,West,280,8.0,13.0,82,0.00,CLR,CLR,0.00,WeatherDisplay:10.37,2013-08-27 10:50:00,
2013-08-27 12:00:00,64.8,58.8,30.06,West,268,6.0,13.0,81,0.00,CLR,CLR,0.00,WeatherDisplay:10.37,2013-08-27 11:00:00,
2013-08-27 12:10:00,65.3,59.0,30.06,West,261,8.0,13.0,80,0.00,CLR,CLR,0.00,WeatherDisplay:10.37,2013-08-27 11:10:00,
2013-08-27 12:20:00,64.8,59.1,30.07,West,262,9.0,23.0,82,0.00,CLR,CLR,0.00,WeatherDisplay:10.37,2013-08-27 11:20:00,
2013-08-27 12:30:00,64.6,59.0,30.07,WSW,252,8.0,13.0,82,0.00,CLR,CLR,0.00,WeatherDisplay:10.37,2013-08-27 11:30:00,
2013-08-27 12:40:00,64.1,58.5,30.07,West,273,10.0,14.0,82,0.00,CLR,CLR,0.00,WeatherDisplay:10.37,2013-08-27 11:40:00,
2013-08-27 12:50:00,63.9,58.6,30.07,West,259,7.0,13.0,83,0.00,CLR,CLR,0.00,WeatherDisplay:10.37,2013-08-27 11:50:00,
2013-08-27 13:00:00,64.2,59.3,30.07,WSW,257,6.0,11.0,84,0.00,CLR,CLR,0.00,WeatherDisplay:10.37,2013-08-27 12:00:00,
2013-08-27 13:10:00,64.4,59.8,30.08,SSW,208,8.0,13.0,85,0.00,CLR,CLR,0.00,WeatherDisplay:10.37,2013-08-27 12:10:00,
2013-08-27 13:20:00,64.2,59.6,30.08,WNW,283,6.0,14.0,85,0.01,RA,RA,0.01,WeatherDisplay:10.37,2013-08-27 12:20:00,
2013-08-27 13:30:00,64.8,60.5,30.08,NNW,332,6.0,9.0,86,0.00,CLR,CLR,0.01,WeatherDisplay:10.37,2013-08-27 12:30:00,
2013-08-27 13:40:00,65.3,60.7,30.08,NNW,345,5.0,9.0,85,0.00,CLR,CLR,0.01,WeatherDisplay:10.37,2013-08-27 12:40:00,
2013-08-27 13:50:00,66.3,60.6,30.08,NNW,338,5.0,11.0,82,0.00,CLR,CLR,0.01,WeatherDisplay:10.37,2013-08-27 12:50:00,
2013-08-27 14:00:00,67.5,60.4,30.08,NW,323,6.0,8.0,78,0.00,CLR,CLR,0.01,WeatherDisplay:10.37,2013-08-27 13:00:00,
2013-08-27 14:10:00,65.8,59.5,30.08,North,8,6.0,17.0,80,0.00,CLR,CLR,0.01,WeatherDisplay:10.37,2013-08-27 13:10:00,
2013-08-27 14:20:00,65.8,59.1,30.08,North,9,8.0,13.0,79,0.00,CLR,CLR,0.01,WeatherDisplay:10.37,2013-08-27 13:20:00,
2013-08-27 14:30:00,67.4,59.6,30.08,North,1,7.0,13.0,76,0.00,CLR,CLR,0.01,WeatherDisplay:10.37,2013-08-27 13:30:00,
2013-08-27 14:40:00,68.2,59.6,30.08,North,355,6.0,15.0,74,0.00,CLR,CLR,0.01,WeatherDisplay:10.37,2013-08-27 13:40:00,
2013-08-27 14:50:00,68.2,59.2,30.08,NNW,333,6.0,10.0,73,0.00,CLR,CLR,0.01,WeatherDisplay:10.37,2013-08-27 13:50:00,
2013-08-27 15:00:00,68.6,59.6,30.08,NNW,342,6.0,11.0,73,0.00,CLR,CLR,0.01,WeatherDisplay:10.37,2013-08-27 14:00:00,
2013-08-27 15:10:00,69.6,58.5,30.08,North,353,5.0,11.0,68,0.00,CLR,CLR,0.01,WeatherDisplay:10.37,2013-08-27 14:10:00,
2013-08-27 15:20:00,68.4,58.2,30.08,NNE,33,6.0,11.0,70,0.00,CLR,CLR,0.01,WeatherDisplay:10.37,2013-08-27 14:20:00,
2013-08-27 15:30:00,67.4,58.4,30.08,North,8,6.0,16.0,73,0.00,CLR,CLR,0.01,WeatherDisplay:10.37,2013-08-27 14:30:00,
2013-08-27 15:40:00,68.4,57.8,30.08,North,357,5.0,10.0,69,0.00,CLR,CLR,0.01,WeatherDisplay:10.37,2013-08-27 14:40:00,
2013-08-27 15:50:00,68.5,58.0,30.08,North,4,5.0,11.0,69,0.00,CLR,CLR,0.01,WeatherDisplay:10.37,2013-08-27 14:50:00,
2013-08-27 16:00:00,68.7,57.7,30.08,NNE,17,6.0,13.0,68,0.00,CLR,CLR,0.01,WeatherDisplay:10.37,2013-08-27 15:00:00,
2013-08-27 16:10:00,68.4,57.4,30.09,NNE,21,6.0,13.0,68,0.00,CLR,CLR,0.01,WeatherDisplay:10.37,2013-08-27 15:10:00,
2013-08-27 16:20:00,67.6,57.5,30.09,NNE,26,6.0,16.0,70,0.00,CLR,CLR,0.01,WeatherDisplay:10.37,2013-08-27 15:20:00,
2013-08-27 16:30:00,67.6,57.1,30.09,North,358,5.0,17.0,69,0.00,CLR,CLR,0.01,WeatherDisplay:10.37,2013-08-27 15:30:00,
2013-08-27 16:40:00,67.6,57.1,30.09,NNE,22,9.0,17.0,69,0.00,CLR,CLR,0.01,WeatherDisplay:10.37,2013-08-27 15:40:00,
2013-08-27 16:50:00,67.5,57.3,30.08,North,11,6.0,16.0,70,0.00,CLR,CLR,0.01,WeatherDisplay:10.37,2013-08-27 15:50:00,
2013-08-27 17:00:00,67.6,56.7,30.09,North,2,7.0,13.0,68,0.00,CLR,CLR,0.01,WeatherDisplay:10.37,2013-08-27 16:00:00,
2013-08-27 17:10:00,66.6,56.1,30.09,North,351,6.0,17.0,69,0.00,CLR,CLR,0.01,WeatherDisplay:10.37,2013-08-27 16:10:00,
2013-08-27 17:20:00,67.0,56.1,30.09,NNW,338,9.0,16.0,68,0.00,CLR,CLR,0.01,WeatherDisplay:10.37,2013-08-27 16:20:00,
2013-08-27 17:30:00,66.8,55.5,30.09,NNE,18,6.0,15.0,67,0.00,CLR,CLR,0.01,WeatherDisplay:10.37,2013-08-27 16:30:00,
2013-08-27 17:40:00,66.4,55.5,30.10,NNE,21,5.0,15.0,68,0.00,CLR,CLR,0.01,WeatherDisplay:10.37,2013-08-27 16:40:00,
2013-08-27 17:50:00,65.8,55.0,30.10,North,353,7.0,20.0,68,0.00,CLR,CLR,0.01,WeatherDisplay:10.37,2013-08-27 16:50:00,
2013-08-27 18:00:00,65.1,54.3,30.10,NNE,20,7.0,18.0,68,0.00,CLR,CLR,0.01,WeatherDisplay:10.37,2013-08-27 17:00:00,
2013-08-27 18:10:00,65.1,54.3,30.11,NW,320,3.0,13.0,68,0.00,CLR,CLR,0.01,WeatherDisplay:10.37,2013-08-27 17:10:00,
2013-08-27 18:20:00,65.7,54.4,30.10,North,357,7.0,15.0,67,0.00,CLR,CLR,0.01,WeatherDisplay:10.37,2013-08-27 17:20:00,
2013-08-27 18:30:00,67.5,54.8,30.11,NNE,13,6.0,14.0,64,0.00,CLR,CLR,0.01,WeatherDisplay:10.37,2013-08-27 17:30:00,
2013-08-27 18:40:00,67.5,54.5,30.11,NNE,13,8.0,20.0,63,0.01,RA,RA,0.02,WeatherDisplay:10.37,2013-08-27 17:40:00,
2013-08-27 18:50:00,66.4,53.9,30.10,NE,53,7.0,17.0,64,0.00,CLR,CLR,0.02,WeatherDisplay:10.37,2013-08-27 17:50:00,
2013-08-27 19:00:00,66.3,53.4,30.11,NNE,23,6.0,17.0,63,0.00,CLR,CLR,0.02,WeatherDisplay:10.37,2013-08-27 18:00:00,
2013-08-27 19:10:00,65.5,53.4,30.11,North,5,6.0,18.0,65,0.00,CLR,CLR,0.02,WeatherDisplay:10.37,2013-08-27 18:10:00,
2013-08-27 19:20:00,65.7,52.8,30.11,NE,43,2.0,16.0,63,0.00,CLR,CLR,0.02,WeatherDisplay:10.37,2013-08-27 18:20:00,
2013-08-27 19:30:00,64.1,52.1,30.11,WNW,296,3.0,14.0,65,0.00,CLR,CLR,0.02,WeatherDisplay:10.37,2013-08-27 18:30:00,
2013-08-27 19:40:00,64.9,52.4,30.11,North,5,3.0,15.0,64,0.00,CLR,CLR,0.02,WeatherDisplay:10.37,2013-08-27 18:40:00,
2013-08-27 19:50:00,64.4,52.0,30.12,NE,44,6.0,14.0,64,0.00,CLR,CLR,0.02,WeatherDisplay:10.37,2013-08-27 18:50:00,
2013-08-27 20:00:00,63.5,51.5,30.12,NNW,333,6.0,14.0,65,0.00,CLR,CLR,0.02,WeatherDisplay:10.37,2013-08-27 19:00:00,
2013-08-27 20:10:00,63.1,51.2,30.12,ENE,59,5.0,11.0,65,0.00,CLR,CLR,0.02,WeatherDisplay:10.37,2013-08-27 19:10:00,
2013-08-27 20:20:00,60.8,50.6,30.13,NE,38,5.0,13.0,69,0.00,CLR,CLR,0.02,WeatherDisplay:10.37,2013-08-27 19:20:00,
2013-08-27 20:30:00,60.1,51.0,30.13,NNW,342,5.0,13.0,72,0.00,CLR,CLR,0.02,WeatherDisplay:10.37,2013-08-27 19:30:00,
2013-08-27 20:40:00,59.4,50.3,30.13,North,2,2.0,15.0,72,0.00,CLR,CLR,0.02,WeatherDisplay:10.37,2013-08-27 19:40:00,
2013-08-27 20:50:00,59.0,50.4,30.14,NNE,29,5.0,13.0,73,0.00,CLR,CLR,0.02,WeatherDisplay:10.37,2013-08-27 19:50:00,
2013-08-27 21:00:00,58.6,50.4,30.15,NNE,24,8.0,16.0,74,0.00,CLR,CLR,0.02,WeatherDisplay:10.37,2013-08-27 20:00:00,
2013-08-27 21:10:00,58.1,49.9,30.15,NNE,12,3.0,15.0,74,0.00,CLR,CLR,0.02,WeatherDisplay:10.37,2013-08-27 20:10:00,
2013-08-27 21:20:00,57.7,49.9,30.15,NE,43,2.0,11.0,75,0.00,CLR,CLR,0.02,WeatherDisplay:10.37,2013-08-27 20:20:00,
2013-08-27 21:30:00,57.0,49.5,30.16,NNE,32,3.0,11.0,76,0.00,CLR,CLR,0.02,WeatherDisplay:10.37,2013-08-27 20:30:00,
2013-08-27 21:40:00,56.7,49.5,30.16,NNE,21,6.0,12.0,77,0.00,CLR,CLR,0.02,WeatherDisplay:10.37,2013-08-27 20:40:00,
2013-08-27 21:50:00,56.7,49.5,30.16,North,356,3.0,12.0,77,0.00,CLR,CLR,0.02,WeatherDisplay:10.37,2013-08-27 20:50:00,
2013-08-27 22:00:00,56.1,49.0,30.17,NE,43,5.0,13.0,77,0.00,CLR,CLR,0.02,WeatherDisplay:10.37,2013-08-27 21:00:00,
2013-08-27 22:30:00,55.2,49.5,30.16,NNE,21,3.0,12.0,81,0.00,CLR,CLR,0.02,WeatherDisplay:10.37,2013-08-27 21:30:00,
2013-08-27 22:50:00,54.9,49.8,30.16,NNE,24,5.0,16.0,83,0.00,CLR,CLR,0.02,WeatherDisplay:10.37,2013-08-27 21:50:00,
2013-08-27 23:00:00,54.9,49.9,30.17,NNE,31,5.0,9.0,83,0.00,CLR,CLR,0.02,WeatherDisplay:10.37,2013-08-27 22:00:00,
2013-08-27 23:10:00,55.6,50.8,30.17,NNE,27,5.0,13.0,84,0.00,CLR,CLR,0.02,WeatherDisplay:10.37,2013-08-27 22:10:00,
2013-08-27 23:20:00,56.7,51.6,30.17,North,3,5.0,13.0,83,0.00,CLR,CLR,0.02,WeatherDisplay:10.37,2013-08-27 22:20:00,
2013-08-27 23:30:00,56.3,50.9,30.17,NE,46,5.0,11.0,82,0.00,CLR,CLR,0.02,WeatherDisplay:10.37,2013-08-27 22:30:00,
2013-08-27 23:40:00,55.9,50.9,30.17,NE,53,2.0,11.0,83,0.00,CLR,CLR,0.02,WeatherDisplay:10.37,2013-08-27 22:40:00,
2013-08-27 23:50:00,55.0,49.6,30.17,ENE,62,5.0,10.0,82,0.00,CLR,CLR,0.02,WeatherDisplay:10.37,2013-08-27 22:50:00,